createdAt,value
2022-11-09T00:01:43.760Z,11.30
2022-11-09T00:04:11.270Z,11.30
2022-11-09T00:06:38.595Z,11.40
2022-11-09T00:09:08.207Z,11.40
2022-11-09T00:11:37.472Z,11.50
2022-11-09T00:14:04.623Z,11.50
2022-11-09T00:16:31.471Z,11.50
2022-11-09T00:18:58.895Z,11.60
2022-11-09T00:21:25.801Z,11.60
2022-11-09T00:23:53.732Z,11.60
2022-11-09T00:26:21.437Z,11.70
2022-11-09T00:28:49.098Z,11.70
2022-11-09T00:31:19.557Z,11.70
2022-11-09T00:33:53.946Z,11.70
2022-11-09T00:36:21.605Z,11.80
2022-11-09T00:38:50.602Z,11.80
2022-11-09T00:41:17.735Z,11.80
2022-11-09T00:43:45.448Z,11.80
2022-11-09T00:46:12.631Z,11.80
2022-11-09T00:48:40.216Z,11.90
2022-11-09T00:51:07.025Z,11.90
2022-11-09T00:53:33.952Z,11.90
2022-11-09T00:56:06.313Z,11.90
2022-11-09T00:58:36.468Z,11.90
2022-11-09T01:01:15.170Z,11.90
2022-11-09T01:03:44.659Z,11.90
2022-11-09T01:06:22.917Z,11.90
2022-11-09T01:08:50.309Z,12.00
2022-11-09T01:11:19.168Z,12.00
2022-11-09T01:13:46.153Z,12.00
2022-11-09T01:16:16.676Z,12.10
2022-11-09T01:18:43.819Z,12.10
2022-11-09T01:21:12.552Z,12.10
2022-11-09T01:23:40.176Z,12.10
2022-11-09T01:26:09.756Z,12.10
2022-11-09T01:28:36.726Z,12.10
2022-11-09T01:31:07.508Z,12.10
2022-11-09T01:33:34.764Z,12.20
2022-11-09T01:36:08.357Z,12.20
2022-11-09T01:38:37.758Z,12.20
2022-11-09T01:41:11.807Z,12.20
2022-11-09T01:43:38.610Z,12.20
2022-11-09T01:46:32.050Z,12.20
2022-11-09T01:49:03.443Z,12.30
2022-11-09T01:51:52.328Z,12.20
2022-11-09T01:54:27.438Z,12.30
2022-11-09T01:57:02.613Z,12.30
2022-11-09T01:59:35.996Z,12.30
2022-11-09T02:02:04.102Z,12.40
2022-11-09T02:04:41.302Z,12.40
2022-11-09T02:07:11.148Z,12.30
2022-11-09T02:10:00.017Z,12.30
2022-11-09T02:12:29.810Z,12.40
2022-11-09T02:14:57.735Z,12.30
2022-11-09T02:17:27.010Z,12.40
2022-11-09T02:19:54.066Z,12.30
2022-11-09T02:22:20.853Z,12.30
2022-11-09T02:24:50.009Z,12.30
2022-11-09T02:27:20.379Z,12.30
2022-11-09T02:29:49.235Z,12.30
2022-11-09T02:32:28.635Z,12.30
2022-11-09T02:34:57.439Z,12.30
2022-11-09T02:37:40.470Z,12.30
2022-11-09T02:40:17.846Z,12.30
2022-11-09T02:42:45.153Z,12.30
2022-11-09T02:45:12.329Z,12.30
2022-11-09T02:47:40.782Z,12.30
2022-11-09T02:50:07.850Z,12.30
2022-11-09T02:52:34.722Z,12.30
2022-11-09T02:55:01.979Z,12.30
2022-11-09T02:57:28.753Z,12.30
2022-11-09T02:59:55.960Z,12.30
2022-11-09T03:02:22.912Z,12.30
2022-11-09T03:04:51.116Z,12.30
2022-11-09T03:07:19.362Z,12.40
2022-11-09T03:09:46.718Z,12.30
2022-11-09T03:12:29.072Z,12.30
2022-11-09T03:15:05.209Z,12.30
2022-11-09T03:17:33.597Z,12.20
2022-11-09T03:20:00.597Z,12.20
2022-11-09T03:22:28.463Z,12.10
2022-11-09T03:24:55.483Z,12.10
2022-11-09T03:27:22.474Z,12.10
2022-11-09T03:29:49.827Z,12.00
2022-11-09T03:32:16.911Z,11.90
2022-11-09T03:34:43.729Z,11.90
2022-11-09T03:37:12.966Z,11.90
2022-11-09T03:39:40.236Z,11.80
2022-11-09T03:42:07.100Z,11.80
2022-11-09T03:44:33.969Z,11.70
2022-11-09T03:47:00.835Z,11.70
2022-11-09T03:49:27.612Z,11.70
2022-11-09T03:51:54.519Z,11.70
2022-11-09T03:54:21.344Z,11.60
2022-11-09T03:56:48.222Z,11.60
2022-11-09T03:59:15.057Z,11.60
2022-11-09T04:01:41.949Z,11.60
2022-11-09T04:04:08.805Z,11.50
2022-11-09T04:06:35.738Z,11.50
2022-11-09T04:09:02.602Z,11.50
2022-11-09T04:11:29.446Z,11.50
2022-11-09T04:13:56.254Z,11.50
2022-11-09T04:16:23.123Z,11.50
2022-11-09T04:18:49.848Z,11.50
2022-11-09T04:21:21.437Z,11.40
2022-11-09T04:23:50.652Z,11.40
2022-11-09T04:26:17.573Z,11.40
2022-11-09T04:28:44.403Z,11.40
2022-11-09T04:31:11.239Z,11.50
2022-11-09T04:33:38.095Z,11.40
2022-11-09T04:36:05.532Z,11.40
2022-11-09T04:38:32.436Z,11.50
2022-11-09T04:41:04.526Z,11.50
2022-11-09T04:43:31.716Z,11.50
2022-11-09T04:46:02.613Z,11.50
2022-11-09T04:48:30.940Z,11.50
2022-11-09T04:51:15.874Z,11.50
2022-11-09T04:53:42.674Z,11.50
2022-11-09T04:56:09.479Z,11.50
2022-11-09T04:58:36.410Z,11.50
2022-11-09T05:01:08.684Z,11.50
2022-11-09T05:03:36.051Z,11.50
2022-11-09T05:06:23.081Z,11.50
2022-11-09T05:08:49.894Z,11.50
2022-11-09T05:11:16.988Z,11.50
2022-11-09T05:13:43.728Z,11.50
2022-11-09T05:16:10.799Z,11.50
2022-11-09T05:18:37.774Z,11.50
2022-11-09T05:21:04.606Z,11.50
2022-11-09T05:23:50.624Z,11.50
2022-11-09T05:26:17.413Z,11.50
2022-11-09T05:28:44.984Z,11.50
2022-11-09T05:31:11.924Z,11.50
2022-11-09T05:33:38.681Z,11.50
2022-11-09T05:36:05.877Z,11.50
2022-11-09T05:38:33.141Z,11.50
2022-11-09T05:40:59.979Z,11.50
2022-11-09T05:43:26.817Z,11.50
2022-11-09T05:45:53.630Z,11.40
2022-11-09T05:48:20.474Z,11.40
2022-11-09T05:50:47.345Z,11.40
2022-11-09T05:53:22.104Z,11.40
2022-11-09T05:55:49.231Z,11.40
2022-11-09T05:58:16.050Z,11.40
2022-11-09T06:00:42.930Z,11.40
2022-11-09T06:03:11.276Z,11.40
2022-11-09T06:05:40.849Z,11.40
2022-11-09T06:08:13.259Z,11.40
2022-11-09T06:10:41.575Z,11.40
2022-11-09T06:13:08.402Z,11.40
2022-11-09T06:15:35.212Z,11.30
2022-11-09T06:18:02.142Z,11.40
2022-11-09T06:20:29.136Z,11.30
2022-11-09T06:23:02.767Z,11.40
2022-11-09T06:25:32.075Z,11.40
2022-11-09T06:27:59.084Z,11.40
2022-11-09T06:30:25.935Z,11.40
2022-11-09T06:33:01.136Z,11.40
2022-11-09T06:35:28.453Z,11.40
2022-11-09T06:37:59.604Z,11.40
2022-11-09T06:40:26.874Z,11.40
2022-11-09T06:42:56.681Z,11.30
2022-11-09T06:45:23.449Z,11.40
2022-11-09T06:47:50.275Z,11.30
2022-11-09T06:50:17.532Z,11.40
2022-11-09T06:52:44.260Z,11.40
2022-11-09T06:55:11.042Z,11.40
2022-11-09T06:57:37.875Z,11.40
2022-11-09T07:00:06.251Z,11.40
2022-11-09T07:02:33.844Z,11.40
2022-11-09T07:05:00.580Z,11.50
2022-11-09T07:07:28.414Z,11.50
2022-11-09T07:09:55.886Z,11.50
2022-11-09T07:12:22.668Z,11.50
2022-11-09T07:14:49.557Z,11.50
2022-11-09T07:17:18.800Z,11.50
2022-11-09T07:19:52.772Z,11.60
2022-11-09T07:22:19.992Z,11.60
2022-11-09T07:24:46.710Z,11.60
2022-11-09T07:27:13.454Z,11.60
2022-11-09T07:29:40.285Z,11.60
2022-11-09T07:32:07.046Z,11.60
2022-11-09T07:34:33.784Z,11.50
2022-11-09T07:37:00.554Z,11.50
2022-11-09T07:39:27.343Z,11.50
2022-11-09T07:41:55.370Z,11.50
2022-11-09T07:44:25.879Z,11.60
2022-11-09T07:46:52.708Z,11.60
2022-11-09T07:49:19.641Z,11.60
2022-11-09T07:51:46.391Z,11.70
2022-11-09T07:54:13.113Z,11.70
2022-11-09T07:56:39.912Z,11.70
2022-11-09T07:59:06.620Z,11.70
2022-11-09T08:01:33.485Z,11.70
2022-11-09T08:04:00.237Z,11.80
2022-11-09T08:06:28.088Z,11.70
2022-11-09T08:08:55.660Z,11.80
2022-11-09T08:11:22.713Z,11.80
2022-11-09T08:13:49.729Z,11.80
2022-11-09T08:16:16.928Z,11.80
2022-11-09T08:18:43.725Z,11.80
2022-11-09T08:21:10.573Z,11.80
2022-11-09T08:23:37.412Z,11.90
2022-11-09T08:26:06.541Z,11.90
2022-11-09T08:28:34.873Z,11.90
2022-11-09T08:31:04.233Z,11.90
2022-11-09T08:33:37.357Z,12.00
2022-11-09T08:36:12.594Z,12.00
2022-11-09T08:38:39.996Z,12.10
2022-11-09T08:41:12.068Z,12.10
2022-11-09T08:43:40.087Z,12.10
2022-11-09T08:46:06.812Z,12.10
2022-11-09T08:48:33.521Z,12.20
2022-11-09T08:51:00.649Z,12.20
2022-11-09T08:53:29.173Z,12.20
2022-11-09T08:55:56.641Z,12.30
2022-11-09T08:58:23.861Z,12.30
2022-11-09T09:00:50.906Z,12.30
2022-11-09T09:03:17.685Z,12.40
2022-11-09T09:05:44.638Z,12.40
2022-11-09T09:08:12.853Z,12.40
2022-11-09T09:10:40.465Z,12.40
2022-11-09T09:13:07.601Z,12.40
2022-11-09T09:15:34.636Z,12.40
2022-11-09T09:18:02.750Z,12.50
2022-11-09T09:20:29.772Z,12.50
2022-11-09T09:23:00.673Z,12.50
2022-11-09T09:25:28.577Z,12.50
2022-11-09T09:27:55.608Z,12.50
2022-11-09T09:30:22.570Z,12.60
2022-11-09T09:32:49.310Z,12.60
2022-11-09T09:35:16.257Z,12.70
2022-11-09T09:37:44.501Z,12.70
2022-11-09T09:40:23.709Z,12.70
2022-11-09T09:42:53.076Z,12.80
2022-11-09T09:45:28.686Z,12.90
2022-11-09T09:48:04.434Z,12.90
2022-11-09T09:50:45.508Z,13.00
2022-11-09T09:53:32.311Z,13.10
2022-11-09T09:56:21.330Z,13.10
2022-11-09T09:58:55.722Z,13.20
2022-11-09T10:01:27.892Z,13.20
2022-11-09T10:03:54.659Z,13.30
2022-11-09T10:06:38.037Z,13.30
2022-11-09T10:09:04.774Z,13.40
2022-11-09T10:11:34.513Z,13.40
2022-11-09T10:14:11.134Z,13.40
2022-11-09T10:16:56.696Z,13.50
2022-11-09T10:19:38.209Z,13.50
2022-11-09T10:22:22.903Z,13.50
2022-11-09T10:28:24.598Z,13.50
2022-11-09T10:30:51.853Z,13.60
2022-11-09T10:33:21.380Z,13.60
2022-11-09T10:36:08.367Z,13.60
2022-11-09T10:38:46.849Z,13.70
2022-11-09T10:41:34.530Z,13.70
2022-11-09T10:44:20.657Z,13.70
2022-11-09T10:47:12.630Z,13.80
2022-11-09T10:50:35.562Z,13.80
2022-11-09T10:53:29.506Z,13.80
2022-11-09T10:56:21.907Z,13.90
2022-11-09T10:59:47.156Z,13.90
2022-11-09T11:02:35.283Z,14.00
2022-11-09T11:05:25.065Z,13.90
2022-11-09T11:08:29.423Z,14.00
2022-11-09T11:11:37.672Z,14.00
2022-11-09T11:14:34.477Z,14.00
2022-11-09T11:17:29.332Z,14.10
2022-11-09T11:20:27.824Z,14.10
2022-11-09T11:23:13.059Z,14.10
2022-11-09T11:26:21.937Z,14.10
2022-11-09T11:29:19.364Z,14.10
2022-11-09T11:32:08.789Z,14.10
2022-11-09T11:35:00.358Z,14.10
2022-11-09T11:38:01.347Z,14.10
2022-11-09T11:40:55.761Z,14.10
2022-11-09T11:43:54.812Z,14.10
2022-11-09T11:46:48.773Z,14.10
2022-11-09T11:50:17.296Z,14.10
2022-11-09T11:53:48.630Z,14.10
2022-11-09T11:56:42.027Z,14.20
2022-11-09T11:59:50.697Z,14.20
2022-11-09T12:03:03.067Z,14.20
2022-11-09T12:06:04.388Z,14.20
2022-11-09T12:09:00.141Z,14.20
2022-11-09T12:11:51.541Z,14.20
2022-11-09T12:14:57.747Z,14.30
2022-11-09T12:18:15.043Z,14.30
2022-11-09T12:21:14.961Z,14.40
2022-11-09T12:24:18.227Z,14.30
2022-11-09T12:27:36.538Z,14.40
2022-11-09T12:30:25.932Z,14.40
2022-11-09T12:33:15.856Z,14.40
2022-11-09T12:36:07.171Z,14.50
2022-11-09T12:39:05.309Z,14.50
2022-11-09T12:41:52.138Z,14.60
2022-11-09T12:44:46.860Z,14.50
2022-11-09T12:47:41.519Z,14.60
2022-11-09T12:50:27.719Z,14.60
2022-11-09T12:53:13.880Z,14.70
2022-11-09T12:56:11.084Z,14.70
2022-11-09T12:59:22.408Z,14.70
2022-11-09T13:02:36.832Z,14.70
2022-11-09T13:05:39.011Z,14.70
2022-11-09T13:08:29.234Z,14.60
2022-11-09T13:11:33.434Z,14.70
2022-11-09T13:14:31.025Z,14.60
2022-11-09T13:17:28.479Z,14.60
2022-11-09T13:26:46.707Z,14.60
2022-11-09T13:29:41.140Z,14.60
2022-11-09T13:32:33.488Z,14.60
2022-11-09T13:35:40.232Z,14.60
2022-11-09T13:38:28.544Z,14.50
2022-11-09T13:41:32.253Z,14.50
2022-11-09T13:44:28.123Z,14.50
2022-11-09T13:47:27.906Z,14.50
2022-11-09T13:50:25.360Z,14.50
2022-11-09T13:53:37.647Z,14.50
2022-11-09T13:56:40.084Z,14.40
2022-11-09T13:59:36.978Z,14.40
2022-11-09T14:02:25.943Z,14.40
2022-11-09T14:05:35.830Z,14.40
2022-11-09T14:08:27.112Z,14.40
2022-11-09T14:11:28.234Z,14.40
2022-11-09T14:14:36.649Z,14.40
2022-11-09T14:17:44.315Z,14.40
2022-11-09T14:20:58.893Z,14.30
2022-11-09T14:23:44.312Z,14.30
2022-11-09T14:26:29.919Z,14.30
2022-11-09T14:29:23.506Z,14.30
2022-11-09T14:32:27.295Z,14.30
2022-11-09T14:35:26.701Z,14.30
2022-11-09T14:38:23.481Z,14.30
2022-11-09T14:41:20.713Z,14.30
2022-11-09T14:44:05.860Z,14.30
2022-11-09T14:46:56.356Z,14.30
2022-11-09T14:49:42.366Z,14.30
2022-11-09T14:52:29.836Z,14.20
2022-11-09T14:55:17.057Z,14.20
2022-11-09T14:58:03.041Z,14.20
2022-11-09T15:01:09.844Z,14.20
2022-11-09T15:04:17.098Z,14.20
2022-11-09T15:07:04.110Z,14.10
2022-11-09T15:09:54.563Z,14.10
2022-11-09T15:12:46.762Z,14.10
2022-11-09T15:15:35.177Z,14.10
2022-11-09T15:18:30.329Z,14.10
2022-11-09T15:21:19.820Z,14.00
2022-11-09T15:24:08.219Z,14.00
2022-11-09T15:26:54.979Z,14.00
2022-11-09T15:29:43.614Z,14.00
2022-11-09T15:32:34.354Z,13.90
2022-11-09T15:35:20.501Z,13.90
2022-11-09T15:38:06.303Z,13.90
2022-11-09T15:40:51.480Z,13.90
2022-11-09T15:43:37.372Z,13.90
2022-11-09T15:46:32.262Z,13.80
2022-11-09T15:49:26.941Z,13.80
2022-11-09T15:52:12.800Z,13.80
2022-11-09T15:54:58.593Z,13.80
2022-11-09T15:57:44.137Z,13.80
2022-11-09T16:00:29.869Z,13.70
2022-11-09T16:03:17.420Z,13.70
2022-11-09T16:06:02.573Z,13.70
2022-11-09T16:08:48.669Z,13.70
2022-11-09T16:11:34.011Z,13.70
2022-11-09T16:14:22.108Z,13.70
2022-11-09T16:17:07.339Z,13.70
2022-11-09T16:19:52.566Z,13.60
2022-11-09T16:22:38.006Z,13.60
2022-11-09T16:25:23.689Z,13.60
2022-11-09T16:28:08.903Z,13.60
2022-11-09T16:30:54.560Z,13.60
2022-11-09T16:33:40.496Z,13.50
2022-11-09T16:36:25.974Z,13.50
2022-11-09T16:39:17.181Z,13.50
2022-11-09T16:42:09.332Z,13.50
2022-11-09T16:44:59.173Z,13.50
2022-11-09T16:47:51.326Z,13.50
2022-11-09T16:50:36.493Z,13.50
2022-11-09T16:53:26.754Z,13.40
2022-11-09T16:56:12.910Z,13.40
2022-11-09T16:58:58.386Z,13.40
2022-11-09T17:01:53.717Z,13.40
2022-11-09T17:04:39.252Z,13.40
2022-11-09T17:07:25.338Z,13.40
2022-11-09T17:10:11.662Z,13.40
2022-11-09T17:12:57.001Z,13.40
2022-11-09T17:15:48.003Z,13.40
2022-11-09T17:18:33.417Z,13.40
2022-11-09T17:25:50.517Z,13.40
2022-11-09T17:28:53.414Z,13.40
2022-11-09T17:32:00.847Z,13.30
2022-11-09T17:34:47.968Z,13.30
2022-11-09T17:38:12.527Z,13.30
2022-11-09T17:42:06.525Z,13.30
2022-11-09T17:45:37.383Z,13.20
2022-11-09T17:48:42.329Z,13.20
2022-11-09T17:51:49.339Z,13.20
2022-11-09T17:55:20.650Z,13.20
2022-11-09T17:58:32.514Z,13.20
2022-11-09T18:05:46.939Z,13.20
2022-11-09T18:13:26.144Z,13.20
2022-11-09T18:16:21.869Z,13.10
2022-11-09T18:19:11.059Z,13.10
2022-11-09T18:32:41.096Z,13.10
2022-11-09T18:35:41.229Z,13.10
2022-11-09T18:38:36.968Z,13.10
2022-11-09T18:41:48.901Z,13.10
2022-11-09T18:45:38.878Z,13.10
2022-11-09T18:48:42.350Z,13.10
2022-11-09T18:57:27.613Z,13.00
2022-11-09T19:00:20.112Z,13.10
2022-11-09T19:03:19.032Z,13.00
2022-11-09T19:06:37.672Z,13.00
2022-11-09T19:09:44.094Z,13.00
2022-11-09T19:12:50.381Z,12.90
2022-11-09T19:19:16.389Z,12.90
2022-11-09T19:22:02.485Z,13.00
2022-11-09T19:25:05.828Z,12.90
2022-11-09T19:28:10.897Z,12.90
2022-11-09T19:45:06.150Z,12.90
2022-11-09T19:48:15.606Z,12.80
2022-11-09T20:02:27.992Z,12.80
2022-11-09T20:05:26.356Z,12.80
2022-11-09T20:08:26.997Z,12.80
2022-11-09T20:12:26.218Z,12.80
2022-11-09T20:18:49.915Z,12.80
2022-11-09T20:29:33.349Z,12.80
2022-11-09T20:46:02.166Z,12.70
2022-11-09T20:50:00.875Z,12.70
2022-11-09T20:52:51.682Z,12.70
2022-11-09T20:59:00.352Z,12.60
2022-11-09T21:01:50.744Z,12.60
2022-11-09T21:05:27.765Z,12.60
2022-11-09T21:18:50.751Z,12.60
2022-11-09T21:26:28.679Z,12.60
2022-11-09T21:33:58.061Z,12.60
2022-11-09T21:37:32.786Z,12.60
2022-11-09T21:44:34.561Z,12.60
2022-11-09T21:47:36.062Z,12.50
2022-11-09T21:55:18.598Z,12.50
2022-11-09T22:01:58.092Z,12.50
2022-11-09T22:09:35.837Z,12.50
2022-11-09T22:13:13.002Z,12.40
2022-11-09T22:15:59.587Z,12.40
2022-11-09T22:22:46.563Z,12.50
2022-11-09T22:26:32.949Z,12.40
2022-11-09T22:30:01.804Z,12.40
2022-11-09T22:33:35.248Z,12.40
2022-11-09T22:36:23.130Z,12.40
2022-11-09T22:39:08.434Z,12.40
2022-11-09T22:41:54.640Z,12.40
2022-11-09T22:44:42.845Z,12.40
2022-11-09T22:47:28.426Z,12.40
2022-11-09T22:50:13.731Z,12.30
2022-11-09T22:53:03.468Z,12.30
2022-11-09T22:55:56.663Z,12.30
2022-11-09T22:58:42.650Z,12.30
2022-11-09T23:01:28.276Z,12.30
2022-11-09T23:04:13.686Z,12.30
2022-11-09T23:06:59.354Z,12.30
2022-11-09T23:09:44.911Z,12.30
2022-11-09T23:12:33.075Z,12.20
2022-11-09T23:15:18.553Z,12.20
2022-11-09T23:18:22.329Z,12.20
2022-11-09T23:21:08.128Z,12.20
2022-11-09T23:23:55.165Z,12.20
2022-11-09T23:26:40.723Z,12.20
2022-11-09T23:29:25.966Z,12.20
2022-11-09T23:32:11.359Z,12.20
2022-11-09T23:34:56.806Z,12.20
2022-11-09T23:37:42.217Z,12.20
2022-11-09T23:40:28.476Z,12.20
2022-11-09T23:43:14.316Z,12.20
2022-11-09T23:46:05.310Z,12.20
2022-11-09T23:48:50.974Z,12.20
2022-11-09T23:51:36.182Z,12.20
2022-11-09T23:54:21.661Z,12.20
2022-11-09T23:57:07.098Z,12.20
2022-11-09T23:59:52.670Z,12.20
